sensor_id;sensor_type;location;lat;lon;timestamp;P1;durP1;ratioP1;P2;durP2;ratioP2
16760;SDS011;8498;52.516;13.790;2023-07-08T00:03:09;7.65;;;6.63;;
16760;SDS011;8498;52.516;13.790;2023-07-08T00:08:32;9.13;;;6.80;;
16760;SDS011;8498;52.516;13.790;2023-07-08T00:13:55;7.67;;;6.83;;
16760;SDS011;8498;52.516;13.790;2023-07-08T00:19:18;6.83;;;5.93;;
16760;SDS011;8498;52.516;13.790;2023-07-08T00:24:41;6.87;;;6.17;;
16760;SDS011;8498;52.516;13.790;2023-07-08T00:30:10;7.05;;;6.35;;
16760;SDS011;8498;52.516;13.790;2023-07-08T00:35:44;6.60;;;6.00;;
16760;SDS011;8498;52.516;13.790;2023-07-08T00:47:05;7.53;;;6.77;;
16760;SDS011;8498;52.516;13.790;2023-07-08T00:52:31;8.87;;;6.37;;
16760;SDS011;8498;52.516;13.790;2023-07-08T00:57:53;8.30;;;6.60;;
16760;SDS011;8498;52.516;13.790;2023-07-08T01:03:16;7.77;;;6.30;;
16760;SDS011;8498;52.516;13.790;2023-07-08T01:08:41;7.73;;;6.23;;
16760;SDS011;8498;52.516;13.790;2023-07-08T01:14:05;7.57;;;6.43;;
16760;SDS011;8498;52.516;13.790;2023-07-08T01:19:31;6.80;;;6.07;;
16760;SDS011;8498;52.516;13.790;2023-07-08T01:24:56;7.80;;;6.37;;
16760;SDS011;8498;52.516;13.790;2023-07-08T01:30:18;7.17;;;6.47;;
16760;SDS011;8498;52.516;13.790;2023-07-08T01:35:41;8.63;;;6.87;;
16760;SDS011;8498;52.516;13.790;2023-07-08T01:41:03;9.47;;;6.53;;
16760;SDS011;8498;52.516;13.790;2023-07-08T01:46:26;9.70;;;6.80;;
16760;SDS011;8498;52.516;13.790;2023-07-08T01:51:50;7.87;;;6.20;;
16760;SDS011;8498;52.516;13.790;2023-07-08T01:57:13;8.33;;;6.57;;
16760;SDS011;8498;52.516;13.790;2023-07-08T02:02:35;10.13;;;7.00;;
16760;SDS011;8498;52.516;13.790;2023-07-08T02:07:57;7.77;;;6.97;;
16760;SDS011;8498;52.516;13.790;2023-07-08T02:13:20;7.77;;;6.97;;
16760;SDS011;8498;52.516;13.790;2023-07-08T02:18:44;8.37;;;6.57;;
16760;SDS011;8498;52.516;13.790;2023-07-08T02:24:07;7.30;;;6.60;;
16760;SDS011;8498;52.516;13.790;2023-07-08T02:29:30;8.03;;;6.43;;
16760;SDS011;8498;52.516;13.790;2023-07-08T02:34:54;7.63;;;6.57;;
16760;SDS011;8498;52.516;13.790;2023-07-08T02:40:16;10.57;;;5.97;;
16760;SDS011;8498;52.516;13.790;2023-07-08T02:45:39;8.87;;;7.20;;
16760;SDS011;8498;52.516;13.790;2023-07-08T02:51:04;7.63;;;6.20;;
16760;SDS011;8498;52.516;13.790;2023-07-08T02:56:27;11.93;;;6.90;;
16760;SDS011;8498;52.516;13.790;2023-07-08T03:01:50;13.27;;;6.80;;
16760;SDS011;8498;52.516;13.790;2023-07-08T03:07:13;8.17;;;6.60;;
16760;SDS011;8498;52.516;13.790;2023-07-08T03:12:36;7.00;;;6.30;;
16760;SDS011;8498;52.516;13.790;2023-07-08T03:17:59;12.87;;;6.70;;
16760;SDS011;8498;52.516;13.790;2023-07-08T03:23:23;10.43;;;6.63;;
16760;SDS011;8498;52.516;13.790;2023-07-08T03:28:47;11.40;;;6.70;;
16760;SDS011;8498;52.516;13.790;2023-07-08T03:34:14;11.10;;;7.33;;
16760;SDS011;8498;52.516;13.790;2023-07-08T03:39:38;9.23;;;6.90;;
16760;SDS011;8498;52.516;13.790;2023-07-08T03:45:00;8.87;;;6.20;;
16760;SDS011;8498;52.516;13.790;2023-07-08T03:50:24;7.90;;;6.93;;
16760;SDS011;8498;52.516;13.790;2023-07-08T03:55:47;11.03;;;6.83;;
16760;SDS011;8498;52.516;13.790;2023-07-08T04:01:18;8.40;;;6.40;;
16760;SDS011;8498;52.516;13.790;2023-07-08T04:06:43;10.07;;;7.20;;
16760;SDS011;8498;52.516;13.790;2023-07-08T04:12:07;9.87;;;6.80;;
16760;SDS011;8498;52.516;13.790;2023-07-08T04:17:31;9.50;;;6.83;;
16760;SDS011;8498;52.516;13.790;2023-07-08T04:22:53;8.20;;;6.27;;
16760;SDS011;8498;52.516;13.790;2023-07-08T04:28:16;10.10;;;6.60;;
16760;SDS011;8498;52.516;13.790;2023-07-08T04:33:38;6.80;;;6.10;;
16760;SDS011;8498;52.516;13.790;2023-07-08T04:39:01;6.80;;;6.17;;
16760;SDS011;8498;52.516;13.790;2023-07-08T04:44:25;12.27;;;6.37;;
16760;SDS011;8498;52.516;13.790;2023-07-08T04:49:49;7.77;;;5.93;;
16760;SDS011;8498;52.516;13.790;2023-07-08T04:55:12;6.57;;;5.50;;
16760;SDS011;8498;52.516;13.790;2023-07-08T05:00:35;8.67;;;5.13;;
16760;SDS011;8498;52.516;13.790;2023-07-08T05:05:59;7.90;;;5.70;;
16760;SDS011;8498;52.516;13.790;2023-07-08T05:11:21;5.87;;;4.80;;
16760;SDS011;8498;52.516;13.790;2023-07-08T05:16:43;5.60;;;5.10;;
16760;SDS011;8498;52.516;13.790;2023-07-08T05:22:06;5.57;;;5.07;;
16760;SDS011;8498;52.516;13.790;2023-07-08T05:27:29;6.67;;;5.20;;
16760;SDS011;8498;52.516;13.790;2023-07-08T05:32:52;6.53;;;4.78;;
16760;SDS011;8498;52.516;13.790;2023-07-08T05:38:15;6.87;;;4.63;;
16760;SDS011;8498;52.516;13.790;2023-07-08T05:43:38;8.18;;;4.47;;
16760;SDS011;8498;52.516;13.790;2023-07-08T05:49:00;6.97;;;5.20;;
16760;SDS011;8498;52.516;13.790;2023-07-08T05:54:23;9.80;;;5.38;;
16760;SDS011;8498;52.516;13.790;2023-07-08T05:59:46;5.65;;;5.07;;
16760;SDS011;8498;52.516;13.790;2023-07-08T06:05:09;8.43;;;5.47;;
16760;SDS011;8498;52.516;13.790;2023-07-08T06:10:31;6.07;;;5.28;;
16760;SDS011;8498;52.516;13.790;2023-07-08T06:15:53;7.43;;;5.20;;
16760;SDS011;8498;52.516;13.790;2023-07-08T06:21:16;6.32;;;5.20;;
16760;SDS011;8498;52.516;13.790;2023-07-08T06:26:38;5.72;;;5.13;;
16760;SDS011;8498;52.516;13.790;2023-07-08T06:32:01;7.93;;;5.00;;
16760;SDS011;8498;52.516;13.790;2023-07-08T06:37:24;5.57;;;5.07;;
16760;SDS011;8498;52.516;13.790;2023-07-08T06:42:47;6.50;;;4.93;;
16760;SDS011;8498;52.516;13.790;2023-07-08T06:48:26;4.78;;;4.38;;
16760;SDS011;8498;52.516;13.790;2023-07-08T06:53:48;5.82;;;5.10;;
16760;SDS011;8498;52.516;13.790;2023-07-08T06:59:11;6.80;;;4.65;;
16760;SDS011;8498;52.516;13.790;2023-07-08T07:04:33;5.72;;;5.20;;
16760;SDS011;8498;52.516;13.790;2023-07-08T07:09:57;5.72;;;4.80;;
16760;SDS011;8498;52.516;13.790;2023-07-08T07:15:20;5.55;;;4.93;;
16760;SDS011;8498;52.516;13.790;2023-07-08T07:20:49;5.78;;;4.90;;
16760;SDS011;8498;52.516;13.790;2023-07-08T07:26:12;7.22;;;4.10;;
16760;SDS011;8498;52.516;13.790;2023-07-08T07:31:35;5.05;;;3.85;;
16760;SDS011;8498;52.516;13.790;2023-07-08T07:37:02;5.13;;;4.32;;
16760;SDS011;8498;52.516;13.790;2023-07-08T07:42:26;8.90;;;5.13;;
16760;SDS011;8498;52.516;13.790;2023-07-08T07:47:50;5.97;;;4.10;;
16760;SDS011;8498;52.516;13.790;2023-07-08T07:53:12;4.30;;;3.88;;
16760;SDS011;8498;52.516;13.790;2023-07-08T07:58:35;4.45;;;4.05;;
16760;SDS011;8498;52.516;13.790;2023-07-08T08:03:57;6.93;;;3.95;;
16760;SDS011;8498;52.516;13.790;2023-07-08T08:09:20;4.93;;;4.07;;
16760;SDS011;8498;52.516;13.790;2023-07-08T08:14:42;5.60;;;4.57;;
16760;SDS011;8498;52.516;13.790;2023-07-08T08:20:05;5.95;;;4.47;;
16760;SDS011;8498;52.516;13.790;2023-07-08T08:25:29;6.25;;;4.18;;
16760;SDS011;8498;52.516;13.790;2023-07-08T08:30:51;4.88;;;4.28;;
16760;SDS011;8498;52.516;13.790;2023-07-08T08:36:14;4.40;;;4.00;;
16760;SDS011;8498;52.516;13.790;2023-07-08T08:41:37;7.00;;;3.95;;
16760;SDS011;8498;52.516;13.790;2023-07-08T08:47:46;4.10;;;3.80;;
16760;SDS011;8498;52.516;13.790;2023-07-08T08:52:51;4.32;;;3.92;;
16760;SDS011;8498;52.516;13.790;2023-07-08T08:58:28;4.82;;;3.42;;
16760;SDS011;8498;52.516;13.790;2023-07-08T09:04:05;3.67;;;3.00;;
16760;SDS011;8498;52.516;13.790;2023-07-08T09:09:41;3.13;;;2.92;;
16760;SDS011;8498;52.516;13.790;2023-07-08T09:15:26;2.58;;;2.47;;
16760;SDS011;8498;52.516;13.790;2023-07-08T09:20:49;4.70;;;3.05;;
16760;SDS011;8498;52.516;13.790;2023-07-08T09:26:16;2.83;;;2.63;;
16760;SDS011;8498;52.516;13.790;2023-07-08T09:31:41;2.95;;;2.72;;
16760;SDS011;8498;52.516;13.790;2023-07-08T09:37:16;2.53;;;2.33;;
16760;SDS011;8498;52.516;13.790;2023-07-08T09:42:49;2.85;;;2.20;;
16760;SDS011;8498;52.516;13.790;2023-07-08T09:48:21;2.05;;;1.92;;
16760;SDS011;8498;52.516;13.790;2023-07-08T09:53:48;2.50;;;2.40;;
16760;SDS011;8498;52.516;13.790;2023-07-08T09:59:11;3.63;;;2.40;;
16760;SDS011;8498;52.516;13.790;2023-07-08T10:04:36;5.50;;;2.85;;
16760;SDS011;8498;52.516;13.790;2023-07-08T10:10:00;2.72;;;2.53;;
16760;SDS011;8498;52.516;13.790;2023-07-08T10:15:31;2.92;;;2.13;;
16760;SDS011;8498;52.516;13.790;2023-07-08T10:27:00;2.47;;;2.13;;
16760;SDS011;8498;52.516;13.790;2023-07-08T10:38:37;2.92;;;2.65;;
16760;SDS011;8498;52.516;13.790;2023-07-08T10:44:10;2.45;;;2.30;;
16760;SDS011;8498;52.516;13.790;2023-07-08T10:55:40;2.60;;;2.40;;
16760;SDS011;8498;52.516;13.790;2023-07-08T11:07:00;5.28;;;2.30;;
16760;SDS011;8498;52.516;13.790;2023-07-08T11:18:08;3.78;;;2.65;;
16760;SDS011;8498;52.516;13.790;2023-07-08T11:23:38;4.55;;;2.10;;
16760;SDS011;8498;52.516;13.790;2023-07-08T11:29:14;3.80;;;2.80;;
16760;SDS011;8498;52.516;13.790;2023-07-08T11:34:41;3.10;;;2.30;;
16760;SDS011;8498;52.516;13.790;2023-07-08T11:40:20;3.20;;;2.42;;
16760;SDS011;8498;52.516;13.790;2023-07-08T11:45:44;3.05;;;2.33;;
16760;SDS011;8498;52.516;13.790;2023-07-08T11:51:06;2.67;;;2.40;;
16760;SDS011;8498;52.516;13.790;2023-07-08T11:56:48;2.88;;;2.30;;
16760;SDS011;8498;52.516;13.790;2023-07-08T12:02:19;2.55;;;2.25;;
16760;SDS011;8498;52.516;13.790;2023-07-08T12:07:46;2.55;;;2.20;;
16760;SDS011;8498;52.516;13.790;2023-07-08T12:13:13;4.55;;;2.78;;
16760;SDS011;8498;52.516;13.790;2023-07-08T12:18:38;2.58;;;2.38;;
16760;SDS011;8498;52.516;13.790;2023-07-08T12:24:09;2.33;;;2.13;;
16760;SDS011;8498;52.516;13.790;2023-07-08T12:29:34;2.67;;;2.47;;
16760;SDS011;8498;52.516;13.790;2023-07-08T12:34:56;3.28;;;2.63;;
16760;SDS011;8498;52.516;13.790;2023-07-08T12:40:20;4.35;;;2.47;;
16760;SDS011;8498;52.516;13.790;2023-07-08T12:45:44;5.72;;;2.50;;
16760;SDS011;8498;52.516;13.790;2023-07-08T12:51:11;2.17;;;2.08;;
16760;SDS011;8498;52.516;13.790;2023-07-08T12:56:35;2.67;;;2.50;;
16760;SDS011;8498;52.516;13.790;2023-07-08T13:01:59;2.90;;;2.70;;
16760;SDS011;8498;52.516;13.790;2023-07-08T13:07:43;3.58;;;2.60;;
16760;SDS011;8498;52.516;13.790;2023-07-08T13:13:06;4.25;;;2.50;;
16760;SDS011;8498;52.516;13.790;2023-07-08T13:18:37;4.50;;;2.55;;
16760;SDS011;8498;52.516;13.790;2023-07-08T13:24:06;7.25;;;3.08;;
16760;SDS011;8498;52.516;13.790;2023-07-08T13:29:33;4.50;;;2.60;;
16760;SDS011;8498;52.516;13.790;2023-07-08T13:34:57;2.40;;;2.30;;
16760;SDS011;8498;52.516;13.790;2023-07-08T13:40:19;3.53;;;3.22;;
16760;SDS011;8498;52.516;13.790;2023-07-08T13:45:43;5.10;;;3.50;;
16760;SDS011;8498;52.516;13.790;2023-07-08T13:51:20;5.57;;;3.10;;
16760;SDS011;8498;52.516;13.790;2023-07-08T13:56:46;2.80;;;2.60;;
16760;SDS011;8498;52.516;13.790;2023-07-08T14:02:30;2.58;;;2.47;;
16760;SDS011;8498;52.516;13.790;2023-07-08T14:07:52;4.38;;;3.00;;
16760;SDS011;8498;52.516;13.790;2023-07-08T14:13:15;5.30;;;2.90;;
16760;SDS011;8498;52.516;13.790;2023-07-08T14:18:37;3.53;;;2.78;;
16760;SDS011;8498;52.516;13.790;2023-07-08T14:24:00;3.67;;;2.67;;
16760;SDS011;8498;52.516;13.790;2023-07-08T14:29:22;3.00;;;2.80;;
16760;SDS011;8498;52.516;13.790;2023-07-08T14:34:49;3.22;;;2.65;;
16760;SDS011;8498;52.516;13.790;2023-07-08T14:45:50;2.83;;;2.63;;
16760;SDS011;8498;52.516;13.790;2023-07-08T14:51:15;6.85;;;2.83;;
16760;SDS011;8498;52.516;13.790;2023-07-08T14:56:38;3.70;;;2.50;;
16760;SDS011;8498;52.516;13.790;2023-07-08T15:02:15;3.30;;;2.85;;
16760;SDS011;8498;52.516;13.790;2023-07-08T15:07:41;4.40;;;4.00;;
16760;SDS011;8498;52.516;13.790;2023-07-08T15:13:11;3.75;;;2.72;;
16760;SDS011;8498;52.516;13.790;2023-07-08T15:18:33;2.78;;;2.58;;
16760;SDS011;8498;52.516;13.790;2023-07-08T15:23:56;3.03;;;2.75;;
16760;SDS011;8498;52.516;13.790;2023-07-08T15:29:20;2.95;;;2.72;;
16760;SDS011;8498;52.516;13.790;2023-07-08T15:34:44;3.25;;;2.95;;
16760;SDS011;8498;52.516;13.790;2023-07-08T15:40:06;2.83;;;2.63;;
16760;SDS011;8498;52.516;13.790;2023-07-08T15:45:32;3.22;;;2.92;;
16760;SDS011;8498;52.516;13.790;2023-07-08T15:50:59;6.07;;;3.42;;
16760;SDS011;8498;52.516;13.790;2023-07-08T15:56:22;3.53;;;2.65;;
16760;SDS011;8498;52.516;13.790;2023-07-08T16:01:46;2.90;;;2.70;;
16760;SDS011;8498;52.516;13.790;2023-07-08T16:07:09;6.18;;;3.03;;
16760;SDS011;8498;52.516;13.790;2023-07-08T16:12:32;4.47;;;2.55;;
16760;SDS011;8498;52.516;13.790;2023-07-08T16:17:55;7.78;;;2.70;;
16760;SDS011;8498;52.516;13.790;2023-07-08T16:23:18;4.13;;;2.90;;
16760;SDS011;8498;52.516;13.790;2023-07-08T16:28:41;3.10;;;2.80;;
16760;SDS011;8498;52.516;13.790;2023-07-08T16:34:07;4.85;;;3.00;;
16760;SDS011;8498;52.516;13.790;2023-07-08T16:39:32;3.58;;;3.13;;
16760;SDS011;8498;52.516;13.790;2023-07-08T16:44:54;3.92;;;2.70;;
16760;SDS011;8498;52.516;13.790;2023-07-08T16:50:17;4.32;;;3.63;;
16760;SDS011;8498;52.516;13.790;2023-07-08T16:55:40;3.33;;;3.00;;
16760;SDS011;8498;52.516;13.790;2023-07-08T17:01:02;3.80;;;3.33;;
16760;SDS011;8498;52.516;13.790;2023-07-08T17:06:26;3.42;;;3.13;;
16760;SDS011;8498;52.516;13.790;2023-07-08T17:11:49;3.00;;;2.80;;
16760;SDS011;8498;52.516;13.790;2023-07-08T17:17:12;4.82;;;3.35;;
16760;SDS011;8498;52.516;13.790;2023-07-08T17:22:35;2.83;;;2.63;;
16760;SDS011;8498;52.516;13.790;2023-07-08T17:28:00;3.42;;;2.78;;
16760;SDS011;8498;52.516;13.790;2023-07-08T17:33:22;3.00;;;2.80;;
16760;SDS011;8498;52.516;13.790;2023-07-08T17:38:45;3.00;;;2.80;;
16760;SDS011;8498;52.516;13.790;2023-07-08T17:44:11;3.58;;;3.17;;
16760;SDS011;8498;52.516;13.790;2023-07-08T17:49:33;3.33;;;2.90;;
16760;SDS011;8498;52.516;13.790;2023-07-08T17:54:56;3.20;;;2.90;;
16760;SDS011;8498;52.516;13.790;2023-07-08T18:00:25;3.70;;;3.40;;
16760;SDS011;8498;52.516;13.790;2023-07-08T18:05:49;4.38;;;3.50;;
16760;SDS011;8498;52.516;13.790;2023-07-08T18:11:12;5.03;;;3.03;;
16760;SDS011;8498;52.516;13.790;2023-07-08T18:16:36;5.60;;;3.75;;
16760;SDS011;8498;52.516;13.790;2023-07-08T18:21:58;3.78;;;3.47;;
16760;SDS011;8498;52.516;13.790;2023-07-08T18:27:24;4.03;;;3.08;;
16760;SDS011;8498;52.516;13.790;2023-07-08T18:32:48;4.82;;;3.60;;
16760;SDS011;8498;52.516;13.790;2023-07-08T18:38:12;9.20;;;3.35;;
16760;SDS011;8498;52.516;13.790;2023-07-08T18:43:34;3.63;;;3.30;;
16760;SDS011;8498;52.516;13.790;2023-07-08T18:48:57;5.32;;;3.85;;
16760;SDS011;8498;52.516;13.790;2023-07-08T18:54:24;4.45;;;3.47;;
16760;SDS011;8498;52.516;13.790;2023-07-08T18:59:47;3.65;;;3.15;;
16760;SDS011;8498;52.516;13.790;2023-07-08T19:05:11;4.50;;;3.35;;
16760;SDS011;8498;52.516;13.790;2023-07-08T19:10:34;5.40;;;2.92;;
16760;SDS011;8498;52.516;13.790;2023-07-08T19:15:57;5.55;;;3.20;;
16760;SDS011;8498;52.516;13.790;2023-07-08T19:21:20;4.85;;;2.97;;
16760;SDS011;8498;52.516;13.790;2023-07-08T19:26:45;3.65;;;3.00;;
16760;SDS011;8498;52.516;13.790;2023-07-08T19:32:11;2.78;;;2.50;;
16760;SDS011;8498;52.516;13.790;2023-07-08T19:37:35;4.75;;;2.50;;
16760;SDS011;8498;52.516;13.790;2023-07-08T19:42:58;2.55;;;2.35;;
16760;SDS011;8498;52.516;13.790;2023-07-08T19:48:20;2.83;;;2.53;;
16760;SDS011;8498;52.516;13.790;2023-07-08T19:53:43;6.93;;;2.40;;
16760;SDS011;8498;52.516;13.790;2023-07-08T19:59:12;6.35;;;2.70;;
16760;SDS011;8498;52.516;13.790;2023-07-08T20:04:37;2.85;;;2.53;;
16760;SDS011;8498;52.516;13.790;2023-07-08T20:09:59;3.97;;;2.38;;
16760;SDS011;8498;52.516;13.790;2023-07-08T20:15:23;2.50;;;2.30;;
16760;SDS011;8498;52.516;13.790;2023-07-08T20:20:48;3.13;;;2.60;;
16760;SDS011;8498;52.516;13.790;2023-07-08T20:26:20;3.35;;;2.63;;
16760;SDS011;8498;52.516;13.790;2023-07-08T20:31:49;3.15;;;2.60;;
16760;SDS011;8498;52.516;13.790;2023-07-08T20:37:12;4.93;;;2.47;;
16760;SDS011;8498;52.516;13.790;2023-07-08T20:42:36;3.13;;;2.40;;
16760;SDS011;8498;52.516;13.790;2023-07-08T20:47:59;3.67;;;2.72;;
16760;SDS011;8498;52.516;13.790;2023-07-08T20:53:22;4.65;;;2.20;;
16760;SDS011;8498;52.516;13.790;2023-07-08T20:58:45;5.95;;;2.17;;
16760;SDS011;8498;52.516;13.790;2023-07-08T21:04:07;2.63;;;2.42;;
16760;SDS011;8498;52.516;13.790;2023-07-08T21:09:30;3.17;;;2.40;;
16760;SDS011;8498;52.516;13.790;2023-07-08T21:14:54;3.33;;;2.60;;
16760;SDS011;8498;52.516;13.790;2023-07-08T21:20:21;2.65;;;2.13;;
16760;SDS011;8498;52.516;13.790;2023-07-08T21:25:51;3.17;;;2.60;;
16760;SDS011;8498;52.516;13.790;2023-07-08T21:31:14;4.95;;;2.47;;
16760;SDS011;8498;52.516;13.790;2023-07-08T21:36:38;2.65;;;2.40;;
16760;SDS011;8498;52.516;13.790;2023-07-08T21:42:04;3.67;;;2.40;;
16760;SDS011;8498;52.516;13.790;2023-07-08T21:47:31;3.35;;;2.50;;
16760;SDS011;8498;52.516;13.790;2023-07-08T21:52:56;2.70;;;2.30;;
16760;SDS011;8498;52.516;13.790;2023-07-08T21:58:22;4.38;;;2.25;;
16760;SDS011;8498;52.516;13.790;2023-07-08T22:03:46;2.85;;;2.55;;
16760;SDS011;8498;52.516;13.790;2023-07-08T22:09:09;4.75;;;2.63;;
16760;SDS011;8498;52.516;13.790;2023-07-08T22:14:32;3.03;;;2.30;;
16760;SDS011;8498;52.516;13.790;2023-07-08T22:19:55;2.75;;;2.38;;
16760;SDS011;8498;52.516;13.790;2023-07-08T22:25:28;4.55;;;2.38;;
16760;SDS011;8498;52.516;13.790;2023-07-08T22:30:53;7.30;;;3.00;;
16760;SDS011;8498;52.516;13.790;2023-07-08T22:36:15;5.45;;;2.75;;
16760;SDS011;8498;52.516;13.790;2023-07-08T22:41:48;6.97;;;2.75;;
16760;SDS011;8498;52.516;13.790;2023-07-08T22:47:13;4.15;;;2.65;;
16760;SDS011;8498;52.516;13.790;2023-07-08T22:52:38;3.40;;;2.50;;
16760;SDS011;8498;52.516;13.790;2023-07-08T22:58:01;8.50;;;2.53;;
16760;SDS011;8498;52.516;13.790;2023-07-08T23:03:24;2.90;;;2.50;;
16760;SDS011;8498;52.516;13.790;2023-07-08T23:08:47;6.63;;;2.70;;
16760;SDS011;8498;52.516;13.790;2023-07-08T23:14:10;4.45;;;2.95;;
16760;SDS011;8498;52.516;13.790;2023-07-08T23:19:33;6.80;;;3.70;;
16760;SDS011;8498;52.516;13.790;2023-07-08T23:24:56;3.65;;;2.70;;
16760;SDS011;8498;52.516;13.790;2023-07-08T23:30:18;4.20;;;3.10;;
16760;SDS011;8498;52.516;13.790;2023-07-08T23:35:41;4.57;;;3.67;;
16760;SDS011;8498;52.516;13.790;2023-07-08T23:41:06;6.60;;;4.45;;
16760;SDS011;8498;52.516;13.790;2023-07-08T23:46:32;8.82;;;5.20;;
16760;SDS011;8498;52.516;13.790;2023-07-08T23:51:58;8.18;;;4.70;;
16760;SDS011;8498;52.516;13.790;2023-07-08T23:57:21;6.72;;;4.30;;
